sensor_id;sensor_type;location;lat;lon;timestamp;pressure;altitude;pressure_sealevel;temperature;humidity
44531;BME280;30240;47.418;0.700;2023-02-12T00:02:10;102309.033203125;;;4.48;89.11
44531;BME280;30240;47.418;0.700;2023-02-12T00:04:34;102309.033203125;;;4.48;89.11
44531;BME280;30240;47.418;0.700;2023-02-12T00:06:58;102304.97436523438;;;4.4;89.42
44531;BME280;30240;47.418;0.700;2023-02-12T00:09:24;102302.31323242188;;;4.3;89.54
44531;BME280;30240;47.418;0.700;2023-02-12T00:11:48;102300.14038085938;;;4.25;89.79
44531;BME280;30240;47.418;0.700;2023-02-12T00:14:13;102306.43920898438;;;4.2;89.77
44531;BME280;30240;47.418;0.700;2023-02-12T00:16:39;102306.43920898438;;;4.2;89.77
44531;BME280;30240;47.418;0.700;2023-02-12T00:19:04;102301.72119140625;;;4.09;90.28
44531;BME280;30240;47.418;0.700;2023-02-12T00:21:29;102298.82202148438;;;4.13;90.2
44531;BME280;30240;47.418;0.700;2023-02-12T00:23:54;102304.74853515625;;;4.01;90.28
44531;BME280;30240;47.418;0.700;2023-02-12T00:26:20;102301.6845703125;;;4.03;90.57
44531;BME280;30240;47.418;0.700;2023-02-12T00:28:44;102301.6845703125;;;4.03;90.57
44531;BME280;30240;47.418;0.700;2023-02-12T00:31:11;102293.18237304688;;;3.93;90.81
44531;BME280;30240;47.418;0.700;2023-02-12T00:33:34;102297.84545898438;;;3.93;91.0
44531;BME280;30240;47.418;0.700;2023-02-12T00:35:58;102294.2626953125;;;3.86;91.1
44531;BME280;30240;47.418;0.700;2023-02-12T00:38:24;102297.79052734375;;;3.92;91.02
44531;BME280;30240;47.418;0.700;2023-02-12T00:40:49;102297.79052734375;;;3.92;91.02
44531;BME280;30240;47.418;0.700;2023-02-12T00:43:14;102294.68994140625;;;3.82;91.21
44531;BME280;30240;47.418;0.700;2023-02-12T00:45:39;102296.56372070312;;;3.86;91.34
44531;BME280;30240;47.418;0.700;2023-02-12T00:48:04;102294.31762695312;;;3.85;91.34
44531;BME280;30240;47.418;0.700;2023-02-12T00:50:28;102292.09594726562;;;3.83;91.47
44531;BME280;30240;47.418;0.700;2023-02-12T00:52:53;102292.09594726562;;;3.83;91.47
44531;BME280;30240;47.418;0.700;2023-02-12T00:55:19;102287.3046875;;;3.79;91.51
44531;BME280;30240;47.418;0.700;2023-02-12T00:57:43;102289.89868164062;;;3.78;91.44
44531;BME280;30240;47.418;0.700;2023-02-12T01:00:09;102290.90576171875;;;3.81;91.65
44531;BME280;30240;47.418;0.700;2023-02-12T01:02:33;102290.99731445312;;;3.81;91.81
44531;BME280;30240;47.418;0.700;2023-02-12T01:04:58;102290.99731445312;;;3.81;91.81
44531;BME280;30240;47.418;0.700;2023-02-12T01:07:24;102295.3125;;;3.81;91.67
44531;BME280;30240;47.418;0.700;2023-02-12T01:09:48;102286.94458007812;;;3.79;91.73
44531;BME280;30240;47.418;0.700;2023-02-12T01:12:13;102285.99853515625;;;3.86;91.91
44531;BME280;30240;47.418;0.700;2023-02-12T01:14:38;102283.984375;;;3.89;91.84
44531;BME280;30240;47.418;0.700;2023-02-12T01:17:06;102283.984375;;;3.89;91.84
44531;BME280;30240;47.418;0.700;2023-02-12T01:19:29;102277.70385742188;;;3.89;91.85
44531;BME280;30240;47.418;0.700;2023-02-12T01:21:54;102284.423828125;;;3.94;91.97
44531;BME280;30240;47.418;0.700;2023-02-12T01:24:18;102276.2939453125;;;3.87;91.88
44531;BME280;30240;47.418;0.700;2023-02-12T01:26:44;102279.1259765625;;;3.9;92.11
44531;BME280;30240;47.418;0.700;2023-02-12T01:29:09;102276.94702148438;;;3.96;92.1
44531;BME280;30240;47.418;0.700;2023-02-12T01:31:36;102276.94702148438;;;3.96;92.1
44531;BME280;30240;47.418;0.700;2023-02-12T01:33:59;102281.13403320312;;;3.94;92.19
44531;BME280;30240;47.418;0.700;2023-02-12T01:36:25;102279.79736328125;;;3.97;92.29
44531;BME280;30240;47.418;0.700;2023-02-12T01:38:49;102279.66918945312;;;3.97;92.29
44531;BME280;30240;47.418;0.700;2023-02-12T01:41:17;102277.64282226562;;;3.93;92.53
44531;BME280;30240;47.418;0.700;2023-02-12T01:43:39;102277.64282226562;;;3.93;92.53
44531;BME280;30240;47.418;0.700;2023-02-12T01:46:04;102278.42407226562;;;3.93;92.62
44531;BME280;30240;47.418;0.700;2023-02-12T01:48:32;102280.93872070312;;;3.92;92.62
44531;BME280;30240;47.418;0.700;2023-02-12T01:50:54;102274.71313476562;;;3.96;92.7
44531;BME280;30240;47.418;0.700;2023-02-12T01:53:20;102281.14013671875;;;3.93;92.86
44531;BME280;30240;47.418;0.700;2023-02-12T01:55:44;102281.14013671875;;;3.93;92.86
44531;BME280;30240;47.418;0.700;2023-02-12T01:58:08;102285.9130859375;;;3.96;92.82
44531;BME280;30240;47.418;0.700;2023-02-12T02:00:33;102278.81469726562;;;3.93;92.86
44531;BME280;30240;47.418;0.700;2023-02-12T02:03:00;102275.1708984375;;;3.92;92.8
44531;BME280;30240;47.418;0.700;2023-02-12T02:05:30;102279.4921875;;;3.9;93.12
44531;BME280;30240;47.418;0.700;2023-02-12T02:05:32;102279.4921875;;;3.9;93.12
44531;BME280;30240;47.418;0.700;2023-02-12T02:05:40;102279.4921875;;;3.9;93.12
44531;BME280;30240;47.418;0.700;2023-02-12T02:07:49;102279.4921875;;;3.9;93.12
44531;BME280;30240;47.418;0.700;2023-02-12T02:10:14;102275.244140625;;;3.86;93.09
44531;BME280;30240;47.418;0.700;2023-02-12T02:12:39;102276.09252929688;;;3.79;93.29
44531;BME280;30240;47.418;0.700;2023-02-12T02:15:04;102284.87548828125;;;3.79;93.3
44531;BME280;30240;47.418;0.700;2023-02-12T02:17:42;102282.26318359375;;;3.75;93.37
44531;BME280;30240;47.418;0.700;2023-02-12T02:20:58;102282.26318359375;;;3.75;93.37
44531;BME280;30240;47.418;0.700;2023-02-12T02:21:13;102282.26318359375;;;3.75;93.37
44531;BME280;30240;47.418;0.700;2023-02-12T02:21:19;102282.26318359375;;;3.75;93.37
44531;BME280;30240;47.418;0.700;2023-02-12T02:21:28;102282.26318359375;;;3.75;93.37
44531;BME280;30240;47.418;0.700;2023-02-12T02:22:25;102277.03247070312;;;3.69;93.43
44531;BME280;30240;47.418;0.700;2023-02-12T02:25:28;102272.8759765625;;;3.58;93.66
44531;BME280;30240;47.418;0.700;2023-02-12T02:25:35;102272.8759765625;;;3.58;93.66
44531;BME280;30240;47.418;0.700;2023-02-12T02:27:19;102271.20361328125;;;3.51;93.8
44531;BME280;30240;47.418;0.700;2023-02-12T02:30:21;102271.11206054688;;;3.48;93.86
44531;BME280;30240;47.418;0.700;2023-02-12T02:32:02;102271.11206054688;;;3.48;93.86
44531;BME280;30240;47.418;0.700;2023-02-12T02:34:28;102269.00024414062;;;3.27;94.12
44531;BME280;30240;47.418;0.700;2023-02-12T02:36:53;102272.27172851562;;;3.22;94.21
44531;BME280;30240;47.418;0.700;2023-02-12T02:39:16;102275.048828125;;;3.19;94.37
44531;BME280;30240;47.418;0.700;2023-02-12T02:41:44;102267.51708984375;;;3.13;94.24
44531;BME280;30240;47.418;0.700;2023-02-12T02:44:07;102267.51708984375;;;3.13;94.24
44531;BME280;30240;47.418;0.700;2023-02-12T02:46:31;102266.064453125;;;3.1;94.46
44531;BME280;30240;47.418;0.700;2023-02-12T02:48:57;102264.58740234375;;;3.02;94.48
44531;BME280;30240;47.418;0.700;2023-02-12T02:51:20;102265.7470703125;;;2.99;94.6
44531;BME280;30240;47.418;0.700;2023-02-12T02:53:46;102257.45239257812;;;2.87;94.67
44531;BME280;30240;47.418;0.700;2023-02-12T02:56:12;102256.09130859375;;;2.82;94.77
44531;BME280;30240;47.418;0.700;2023-02-12T02:58:36;102256.09130859375;;;2.82;94.77
44531;BME280;30240;47.418;0.700;2023-02-12T03:01:01;102251.3427734375;;;2.81;94.81
44531;BME280;30240;47.418;0.700;2023-02-12T03:03:27;102251.45263671875;;;2.75;94.95
44531;BME280;30240;47.418;0.700;2023-02-12T03:05:51;102242.66967773438;;;2.73;95.02
44531;BME280;30240;47.418;0.700;2023-02-12T03:08:16;102241.43676757812;;;2.64;95.03
44531;BME280;30240;47.418;0.700;2023-02-12T03:10:42;102241.43676757812;;;2.64;95.03
44531;BME280;30240;47.418;0.700;2023-02-12T03:13:06;102244.32983398438;;;2.58;95.09
44531;BME280;30240;47.418;0.700;2023-02-12T03:15:32;102242.3583984375;;;2.5;95.21
44531;BME280;30240;47.418;0.700;2023-02-12T03:17:55;102250.53100585938;;;2.47;95.31
44531;BME280;30240;47.418;0.700;2023-02-12T03:20:22;102252.5634765625;;;2.47;95.35
44531;BME280;30240;47.418;0.700;2023-02-12T03:22:47;102252.5634765625;;;2.47;95.35
44531;BME280;30240;47.418;0.700;2023-02-12T03:25:13;102251.38549804688;;;2.43;95.31
44531;BME280;30240;47.418;0.700;2023-02-12T03:27:37;102259.11865234375;;;2.4;95.65
44531;BME280;30240;47.418;0.700;2023-02-12T03:29:59;102252.36206054688;;;2.3;95.96
44531;BME280;30240;47.418;0.700;2023-02-12T03:32:28;102253.54614257812;;;2.42;96.32
44531;BME280;30240;47.418;0.700;2023-02-12T03:34:52;102253.54614257812;;;2.42;96.32
44531;BME280;30240;47.418;0.700;2023-02-12T03:37:17;102253.49731445312;;;2.46;96.35
44531;BME280;30240;47.418;0.700;2023-02-12T03:39:44;102255.810546875;;;2.49;96.41
44531;BME280;30240;47.418;0.700;2023-02-12T03:42:06;102245.98999023438;;;2.46;96.49
44531;BME280;30240;47.418;0.700;2023-02-12T03:44:42;102249.90844726562;;;2.47;96.45
44531;BME280;30240;47.418;0.700;2023-02-12T03:46:57;102249.90844726562;;;2.47;96.45
44531;BME280;30240;47.418;0.700;2023-02-12T03:49:22;102257.18994140625;;;2.53;96.5
44531;BME280;30240;47.418;0.700;2023-02-12T03:51:44;102243.8720703125;;;2.56;96.37
44531;BME280;30240;47.418;0.700;2023-02-12T03:54:11;102252.79541015625;;;2.57;96.41
44531;BME280;30240;47.418;0.700;2023-02-12T03:56:37;102260.95581054688;;;2.64;96.39
44531;BME280;30240;47.418;0.700;2023-02-12T03:58:59;102260.95581054688;;;2.64;96.39
44531;BME280;30240;47.418;0.700;2023-02-12T04:01:23;102269.20166015625;;;2.71;96.25
44531;BME280;30240;47.418;0.700;2023-02-12T04:03:48;102265.14282226562;;;2.74;96.17
44531;BME280;30240;47.418;0.700;2023-02-12T04:06:23;102266.60766601562;;;2.73;96.21
44531;BME280;30240;47.418;0.700;2023-02-12T04:08:38;102264.56298828125;;;2.73;96.27
44531;BME280;30240;47.418;0.700;2023-02-12T04:11:27;102264.56298828125;;;2.73;96.27
44531;BME280;30240;47.418;0.700;2023-02-12T04:13:41;102259.25903320312;;;2.74;96.2
44531;BME280;30240;47.418;0.700;2023-02-12T04:16:01;102265.29541015625;;;2.78;96.2
44531;BME280;30240;47.418;0.700;2023-02-12T04:18:21;102257.31811523438;;;2.8;96.13
44531;BME280;30240;47.418;0.700;2023-02-12T04:20:50;102260.68725585938;;;2.81;96.12
44531;BME280;30240;47.418;0.700;2023-02-12T04:23:15;102260.68725585938;;;2.81;96.12
44531;BME280;30240;47.418;0.700;2023-02-12T04:25:42;102254.0771484375;;;2.81;96.1
44531;BME280;30240;47.418;0.700;2023-02-12T04:28:05;102257.01293945312;;;2.81;96.26
44531;BME280;30240;47.418;0.700;2023-02-12T04:28:09;102257.01293945312;;;2.81;96.26
44531;BME280;30240;47.418;0.700;2023-02-12T04:30:27;102261.24877929688;;;2.77;96.28
44531;BME280;30240;47.418;0.700;2023-02-12T04:32:52;102259.66186523438;;;2.74;96.47
44531;BME280;30240;47.418;0.700;2023-02-12T04:35:18;102264.9658203125;;;2.82;96.45
44531;BME280;30240;47.418;0.700;2023-02-12T04:37:41;102264.9658203125;;;2.82;96.45
44531;BME280;30240;47.418;0.700;2023-02-12T04:40:04;102252.1728515625;;;2.8;96.41
44531;BME280;30240;47.418;0.700;2023-02-12T04:42:28;102249.560546875;;;2.75;96.49
44531;BME280;30240;47.418;0.700;2023-02-12T04:44:54;102256.65893554688;;;2.85;96.55
44531;BME280;30240;47.418;0.700;2023-02-12T04:47:18;102262.2802734375;;;2.78;96.54
44531;BME280;30240;47.418;0.700;2023-02-12T04:49:43;102262.2802734375;;;2.78;96.54
44531;BME280;30240;47.418;0.700;2023-02-12T04:52:09;102262.6220703125;;;2.78;96.67
44531;BME280;30240;47.418;0.700;2023-02-12T04:54:34;102265.85693359375;;;2.85;96.63
44531;BME280;30240;47.418;0.700;2023-02-12T04:56:58;102273.40698242188;;;2.88;96.51
44531;BME280;30240;47.418;0.700;2023-02-12T04:59:23;102278.28369140625;;;2.92;96.59
44531;BME280;30240;47.418;0.700;2023-02-12T05:01:48;102278.28369140625;;;2.92;96.59
44531;BME280;30240;47.418;0.700;2023-02-12T05:04:15;102279.4189453125;;;2.91;96.6
44531;BME280;30240;47.418;0.700;2023-02-12T05:06:39;102277.23388671875;;;2.91;96.56
44531;BME280;30240;47.418;0.700;2023-02-12T05:09:04;102278.48510742188;;;2.96;96.51
44531;BME280;30240;47.418;0.700;2023-02-12T05:11:28;102276.123046875;;;2.95;96.41
44531;BME280;30240;47.418;0.700;2023-02-12T05:13:53;102276.123046875;;;2.95;96.41
44531;BME280;30240;47.418;0.700;2023-02-12T05:16:20;102274.18823242188;;;2.99;96.38
44531;BME280;30240;47.418;0.700;2023-02-12T05:18:44;102271.46606445312;;;2.96;96.41
44531;BME280;30240;47.418;0.700;2023-02-12T05:21:09;102272.3876953125;;;3.05;96.38
44531;BME280;30240;47.418;0.700;2023-02-12T05:23:35;102279.0283203125;;;3.06;96.26
44531;BME280;30240;47.418;0.700;2023-02-12T05:26:00;102279.0283203125;;;3.06;96.26
44531;BME280;30240;47.418;0.700;2023-02-12T05:28:24;102274.78637695312;;;3.05;96.16
44531;BME280;30240;47.418;0.700;2023-02-12T05:30:49;102275.40893554688;;;3.06;96.2
44531;BME280;30240;47.418;0.700;2023-02-12T05:33:14;102266.48559570312;;;3.06;96.21
44531;BME280;30240;47.418;0.700;2023-02-12T05:35:39;102262.5;;;3.1;96.11
44531;BME280;30240;47.418;0.700;2023-02-12T05:38:04;102262.5;;;3.1;96.11
44531;BME280;30240;47.418;0.700;2023-02-12T05:40:29;102260.48583984375;;;3.1;96.16
44531;BME280;30240;47.418;0.700;2023-02-12T05:42:53;102255.56030273438;;;3.17;96.11
44531;BME280;30240;47.418;0.700;2023-02-12T05:45:19;102252.42919921875;;;3.15;95.97
44531;BME280;30240;47.418;0.700;2023-02-12T05:47:44;102254.82788085938;;;3.08;96.11
44531;BME280;30240;47.418;0.700;2023-02-12T05:50:09;102254.82788085938;;;3.08;96.11
44531;BME280;30240;47.418;0.700;2023-02-12T05:52:34;102247.3876953125;;;3.15;96.15
44531;BME280;30240;47.418;0.700;2023-02-12T05:54:59;102244.21997070312;;;3.17;96.09
44531;BME280;30240;47.418;0.700;2023-02-12T05:57:24;102237.7197265625;;;3.26;96.05
44531;BME280;30240;47.418;0.700;2023-02-12T05:59:49;102229.70581054688;;;3.22;96.08
44531;BME280;30240;47.418;0.700;2023-02-12T06:02:13;102229.7607421875;;;3.24;96.09
44531;BME280;30240;47.418;0.700;2023-02-12T06:04:39;102229.7607421875;;;3.24;96.09
44531;BME280;30240;47.418;0.700;2023-02-12T06:07:04;102225.9521484375;;;3.2;96.06
44531;BME280;30240;47.418;0.700;2023-02-12T06:09:29;102232.3486328125;;;3.23;96.15
44531;BME280;30240;47.418;0.700;2023-02-12T06:11:53;102225.146484375;;;3.26;96.13
44531;BME280;30240;47.418;0.700;2023-02-12T06:14:19;102224.27368164062;;;3.23;96.1
44531;BME280;30240;47.418;0.700;2023-02-12T06:16:45;102224.27368164062;;;3.23;96.1
44531;BME280;30240;47.418;0.700;2023-02-12T06:19:09;102224.53002929688;;;3.26;96.09
44531;BME280;30240;47.418;0.700;2023-02-12T06:21:34;102227.76489257812;;;3.31;96.02
44531;BME280;30240;47.418;0.700;2023-02-12T06:23:59;102220.39794921875;;;3.34;95.94
44531;BME280;30240;47.418;0.700;2023-02-12T06:26:24;102215.42358398438;;;3.28;95.97
44531;BME280;30240;47.418;0.700;2023-02-12T06:28:49;102215.42358398438;;;3.28;95.97
44531;BME280;30240;47.418;0.700;2023-02-12T06:31:16;102215.25268554688;;;3.3;96.1
44531;BME280;30240;47.418;0.700;2023-02-12T06:33:39;102220.03784179688;;;3.31;96.06
44531;BME280;30240;47.418;0.700;2023-02-12T06:36:04;102227.37426757812;;;3.37;95.96
44531;BME280;30240;47.418;0.700;2023-02-12T06:38:29;102226.14135742188;;;3.41;95.89
44531;BME280;30240;47.418;0.700;2023-02-12T06:40:54;102226.14135742188;;;3.41;95.89
44531;BME280;30240;47.418;0.700;2023-02-12T06:43:19;102227.001953125;;;3.33;95.9
44531;BME280;30240;47.418;0.700;2023-02-12T06:45:44;102232.58056640625;;;3.37;95.83
44531;BME280;30240;47.418;0.700;2023-02-12T06:48:09;102226.220703125;;;3.35;95.88
44531;BME280;30240;47.418;0.700;2023-02-12T06:50:34;102221.6552734375;;;3.4;95.81
44531;BME280;30240;47.418;0.700;2023-02-12T06:52:59;102221.6552734375;;;3.4;95.81
44531;BME280;30240;47.418;0.700;2023-02-12T06:55:24;102225.31127929688;;;3.43;95.84
44531;BME280;30240;47.418;0.700;2023-02-12T06:57:48;102226.72119140625;;;3.5;95.75
44531;BME280;30240;47.418;0.700;2023-02-12T07:00:14;102222.56469726562;;;3.43;95.7
44531;BME280;30240;47.418;0.700;2023-02-12T07:02:39;102222.67456054688;;;3.54;95.67
44531;BME280;30240;47.418;0.700;2023-02-12T07:05:04;102222.67456054688;;;3.54;95.67
44531;BME280;30240;47.418;0.700;2023-02-12T07:07:29;102227.65502929688;;;3.5;95.49
44531;BME280;30240;47.418;0.700;2023-02-12T07:09:53;102232.14721679688;;;3.5;95.55
44531;BME280;30240;47.418;0.700;2023-02-12T07:12:19;102238.95263671875;;;3.5;95.48
44531;BME280;30240;47.418;0.700;2023-02-12T07:14:43;102248.7060546875;;;3.57;95.48
44531;BME280;30240;47.418;0.700;2023-02-12T07:17:09;102248.7060546875;;;3.57;95.48
44531;BME280;30240;47.418;0.700;2023-02-12T07:19:34;102250.20141601562;;;3.57;95.41
44531;BME280;30240;47.418;0.700;2023-02-12T07:21:59;102242.83447265625;;;3.59;95.42
44531;BME280;30240;47.418;0.700;2023-02-12T07:24:24;102242.99926757812;;;3.57;95.41
44531;BME280;30240;47.418;0.700;2023-02-12T07:26:49;102242.41943359375;;;3.55;95.42
44531;BME280;30240;47.418;0.700;2023-02-12T07:29:14;102246.34399414062;;;3.67;95.25
44531;BME280;30240;47.418;0.700;2023-02-12T07:31:39;102246.34399414062;;;3.67;95.25
44531;BME280;30240;47.418;0.700;2023-02-12T07:34:04;102247.20458984375;;;3.68;95.15
44531;BME280;30240;47.418;0.700;2023-02-12T07:36:30;102252.40478515625;;;3.67;95.12
44531;BME280;30240;47.418;0.700;2023-02-12T07:38:54;102266.26586914062;;;3.74;95.04
44531;BME280;30240;47.418;0.700;2023-02-12T07:41:21;102270.13549804688;;;3.74;94.99
44531;BME280;30240;47.418;0.700;2023-02-12T07:43:45;102270.13549804688;;;3.74;94.99
44531;BME280;30240;47.418;0.700;2023-02-12T07:46:10;102261.9873046875;;;3.75;94.93
44531;BME280;30240;47.418;0.700;2023-02-12T07:48:34;102267.38891601562;;;3.81;94.85
44531;BME280;30240;47.418;0.700;2023-02-12T07:51:01;102277.0263671875;;;3.93;94.69
44531;BME280;30240;47.418;0.700;2023-02-12T07:53:24;102267.65747070312;;;3.9;94.78
44531;BME280;30240;47.418;0.700;2023-02-12T07:55:49;102267.65747070312;;;3.9;94.78
44531;BME280;30240;47.418;0.700;2023-02-12T07:58:13;102269.14672851562;;;3.89;94.6
44531;BME280;30240;47.418;0.700;2023-02-12T08:00:39;102273.83422851562;;;3.96;94.55
44531;BME280;30240;47.418;0.700;2023-02-12T08:03:03;102275.6591796875;;;4.03;94.59
44531;BME280;30240;47.418;0.700;2023-02-12T08:05:28;102270.15380859375;;;4.06;94.47
44531;BME280;30240;47.418;0.700;2023-02-12T08:07:54;102270.15380859375;;;4.06;94.47
44531;BME280;30240;47.418;0.700;2023-02-12T08:10:18;102275.79956054688;;;4.01;94.51
44531;BME280;30240;47.418;0.700;2023-02-12T08:12:43;102272.59521484375;;;4.06;94.38
44531;BME280;30240;47.418;0.700;2023-02-12T08:15:09;102274.40795898438;;;4.1;94.41
44531;BME280;30240;47.418;0.700;2023-02-12T08:17:33;102278.99780273438;;;4.1;94.34
44531;BME280;30240;47.418;0.700;2023-02-12T08:19:58;102278.99780273438;;;4.1;94.34
44531;BME280;30240;47.418;0.700;2023-02-12T08:22:23;102281.84204101562;;;4.14;94.13
44531;BME280;30240;47.418;0.700;2023-02-12T08:24:49;102283.59375;;;4.16;94.15
44531;BME280;30240;47.418;0.700;2023-02-12T08:27:14;102281.54907226562;;;4.17;94.22
44531;BME280;30240;47.418;0.700;2023-02-12T08:29:39;102279.09545898438;;;4.33;94.12
44531;BME280;30240;47.418;0.700;2023-02-12T08:32:03;102279.09545898438;;;4.33;94.12
44531;BME280;30240;47.418;0.700;2023-02-12T08:34:31;102286.279296875;;;4.4;93.88
44531;BME280;30240;47.418;0.700;2023-02-12T08:36:55;102278.84521484375;;;4.37;93.82
44531;BME280;30240;47.418;0.700;2023-02-12T08:39:19;102270.09887695312;;;4.41;93.82
44531;BME280;30240;47.418;0.700;2023-02-12T08:41:44;102279.84619140625;;;4.3;93.68
44531;BME280;30240;47.418;0.700;2023-02-12T08:44:10;102279.84619140625;;;4.3;93.68
44531;BME280;30240;47.418;0.700;2023-02-12T08:46:35;102283.90502929688;;;4.53;93.65
44531;BME280;30240;47.418;0.700;2023-02-12T08:49:00;102277.9296875;;;4.37;93.61
44531;BME280;30240;47.418;0.700;2023-02-12T08:51:25;102271.76513671875;;;4.53;93.62
44531;BME280;30240;47.418;0.700;2023-02-12T08:53:51;102270.39184570312;;;4.72;93.52
44531;BME280;30240;47.418;0.700;2023-02-12T08:56:15;102270.39184570312;;;4.72;93.52
44531;BME280;30240;47.418;0.700;2023-02-12T08:58:39;102276.220703125;;;4.84;93.13
44531;BME280;30240;47.418;0.700;2023-02-12T09:01:08;102279.0771484375;;;4.9;92.96
44531;BME280;30240;47.418;0.700;2023-02-12T09:03:29;102278.7353515625;;;4.84;92.86
44531;BME280;30240;47.418;0.700;2023-02-12T09:05:54;102272.95532226562;;;4.93;92.86
44531;BME280;30240;47.418;0.700;2023-02-12T09:08:19;102274.08447265625;;;4.88;92.9
44531;BME280;30240;47.418;0.700;2023-02-12T09:10:44;102274.08447265625;;;4.88;92.9
44531;BME280;30240;47.418;0.700;2023-02-12T09:13:10;102275.9033203125;;;4.9;92.8
44531;BME280;30240;47.418;0.700;2023-02-12T09:15:35;102275.95825195312;;;4.7;92.75
44531;BME280;30240;47.418;0.700;2023-02-12T09:17:58;102272.90649414062;;;4.76;93.06
44531;BME280;30240;47.418;0.700;2023-02-12T09:20:23;102266.1865234375;;;4.84;92.87
44531;BME280;30240;47.418;0.700;2023-02-12T09:22:49;102266.1865234375;;;4.84;92.87
44531;BME280;30240;47.418;0.700;2023-02-12T09:25:14;102269.580078125;;;4.94;92.75
44531;BME280;30240;47.418;0.700;2023-02-12T09:27:38;102266.87622070312;;;5.1;92.19
44531;BME280;30240;47.418;0.700;2023-02-12T09:30:04;102262.81127929688;;;5.11;91.99
44531;BME280;30240;47.418;0.700;2023-02-12T09:32:29;102263.36669921875;;;5.14;92.0
44531;BME280;30240;47.418;0.700;2023-02-12T09:34:54;102263.36669921875;;;5.14;92.0
44531;BME280;30240;47.418;0.700;2023-02-12T09:37:18;102267.07153320312;;;5.07;91.91
44531;BME280;30240;47.418;0.700;2023-02-12T09:39:44;102256.13403320312;;;5.24;91.33
44531;BME280;30240;47.418;0.700;2023-02-12T09:42:19;102262.12768554688;;;5.45;91.25
44531;BME280;30240;47.418;0.700;2023-02-12T09:44:40;102260.5224609375;;;5.53;91.04
44531;BME280;30240;47.418;0.700;2023-02-12T09:47:02;102260.5224609375;;;5.53;91.04
44531;BME280;30240;47.418;0.700;2023-02-12T09:49:31;102251.62353515625;;;5.42;90.74
44531;BME280;30240;47.418;0.700;2023-02-12T09:51:51;102253.06396484375;;;5.43;90.83
44531;BME280;30240;47.418;0.700;2023-02-12T09:54:16;102252.82592773438;;;5.97;89.34
44531;BME280;30240;47.418;0.700;2023-02-12T09:56:42;102254.20532226562;;;5.83;89.81
44531;BME280;30240;47.418;0.700;2023-02-12T09:59:05;102254.20532226562;;;5.83;89.81
44531;BME280;30240;47.418;0.700;2023-02-12T10:01:29;102249.22485351562;;;5.71;89.54
44531;BME280;30240;47.418;0.700;2023-02-12T10:03:54;102252.783203125;;;6.23;88.24
44531;BME280;30240;47.418;0.700;2023-02-12T10:06:20;102253.173828125;;;6.2;87.77
44531;BME280;30240;47.418;0.700;2023-02-12T10:08:52;102252.17895507812;;;6.6;87.29
44531;BME280;30240;47.418;0.700;2023-02-12T10:11:16;102252.17895507812;;;6.6;87.29
44531;BME280;30240;47.418;0.700;2023-02-12T10:13:40;102253.88793945312;;;6.58;87.22
44531;BME280;30240;47.418;0.700;2023-02-12T10:13:45;102253.88793945312;;;6.58;87.22
44531;BME280;30240;47.418;0.700;2023-02-12T10:13:51;102253.88793945312;;;6.58;87.22
44531;BME280;30240;47.418;0.700;2023-02-12T10:16:02;102260.205078125;;;6.34;87.57
44531;BME280;30240;47.418;0.700;2023-02-12T10:16:09;102260.205078125;;;6.34;87.57
44531;BME280;30240;47.418;0.700;2023-02-12T10:18:35;102263.75122070312;;;6.47;87.13
44531;BME280;30240;47.418;0.700;2023-02-12T10:20:54;102267.7490234375;;;6.12;87.47
44531;BME280;30240;47.418;0.700;2023-02-12T10:23:23;102267.7490234375;;;6.12;87.47
44531;BME280;30240;47.418;0.700;2023-02-12T10:25:43;102265.29541015625;;;5.93;88.16
44531;BME280;30240;47.418;0.700;2023-02-12T10:28:08;102260.68725585938;;;5.75;88.73
44531;BME280;30240;47.418;0.700;2023-02-12T10:30:34;102261.90795898438;;;6.04;88.04
44531;BME280;30240;47.418;0.700;2023-02-12T10:32:59;102263.51318359375;;;6.18;87.96
44531;BME280;30240;47.418;0.700;2023-02-12T10:35:20;102266.31469726562;;;7.23;84.42
44531;BME280;30240;47.418;0.700;2023-02-12T10:37:48;102266.31469726562;;;7.23;84.42
44531;BME280;30240;47.418;0.700;2023-02-12T10:40:16;102270.50170898438;;;6.23;86.97
44531;BME280;30240;47.418;0.700;2023-02-12T10:42:37;102268.603515625;;;6.47;86.93
44531;BME280;30240;47.418;0.700;2023-02-12T10:44:58;102270.23315429688;;;6.93;85.92
44531;BME280;30240;47.418;0.700;2023-02-12T10:47:24;102269.73266601562;;;6.63;85.86
44531;BME280;30240;47.418;0.700;2023-02-12T10:49:53;102269.73266601562;;;6.63;85.86
44531;BME280;30240;47.418;0.700;2023-02-12T10:52:17;102265.87524414062;;;6.3;86.66
44531;BME280;30240;47.418;0.700;2023-02-12T10:54:40;102267.21801757812;;;6.13;86.74
44531;BME280;30240;47.418;0.700;2023-02-12T10:57:07;102265.57006835938;;;6.72;85.74
44531;BME280;30240;47.418;0.700;2023-02-12T10:59:28;102265.20385742188;;;8.06;82.54
44531;BME280;30240;47.418;0.700;2023-02-12T11:01:54;102265.20385742188;;;8.06;82.54
44531;BME280;30240;47.418;0.700;2023-02-12T11:04:23;102255.0048828125;;;9.54;76.52
44531;BME280;30240;47.418;0.700;2023-02-12T11:07:00;102249.27368164062;;;9.91;74.92
44531;BME280;30240;47.418;0.700;2023-02-12T11:09:26;102245.83740234375;;;11.19;70.02